Marana, Arizona
Current Conditions -  °F | °C
As of 9:15 AM on Thursday 27 Nov 2014 (Local Time) from KAVQ Reporting Station
Clear Clear  
Wind Chill: 54°   Ceiling: Unl
Heat Index: 54°   Visibility: 10mi
Dew Point: 22°   Wind: 5mph
Humidity: 29%   Direction: 80°E
Pressure: 30.23"   Gusts: NA
Location:  32.44°N, 111.23°W
Report Text: KAVQ 271615Z AUTO 08004KT 10SM CLR 12/M05 A3023 RMK AO2 T01211055
Loading
Personal Weather Stations






























Interactive Weather Map New forecast layout! Learn more

10-Day Weather Forecast

Advertisements
Track Severe Weather on mobile